createdAt,value
2023-04-16T00:00:09.383Z,16.60
2023-04-16T00:02:41.525Z,18.00
2023-04-16T00:05:09.655Z,15.90
2023-04-16T00:07:37.706Z,15.10
2023-04-16T00:10:06.701Z,15.50
2023-04-16T00:12:35.247Z,16.80
2023-04-16T00:15:03.482Z,17.50
2023-04-16T00:17:31.552Z,17.90
2023-04-16T00:19:59.535Z,18.30
2023-04-16T00:22:27.448Z,18.90
2023-04-16T00:24:55.485Z,16.80
2023-04-16T00:27:23.461Z,18.10
2023-04-16T00:29:51.360Z,18.50
2023-04-16T00:32:19.493Z,18.90
2023-04-16T00:34:47.908Z,19.00
2023-04-16T00:37:15.867Z,18.40
2023-04-16T00:39:43.844Z,19.30
2023-04-16T00:42:11.940Z,19.80
2023-04-16T00:44:39.968Z,18.80
2023-04-16T00:47:09.825Z,17.80
2023-04-16T00:49:37.684Z,19.20
2023-04-16T00:52:05.694Z,20.60
2023-04-16T00:54:33.787Z,20.00
2023-04-16T00:57:02.288Z,18.90
2023-04-16T00:59:32.760Z,19.50
2023-04-16T01:02:00.994Z,18.80
2023-04-16T01:04:30.998Z,20.30
2023-04-16T01:06:59.126Z,20.30
2023-04-16T01:09:27.024Z,19.20
2023-04-16T01:11:54.892Z,17.80
2023-04-16T01:14:23.056Z,18.70
2023-04-16T01:16:50.921Z,17.70
2023-04-16T01:19:18.763Z,19.00
2023-04-16T01:21:46.989Z,17.40
2023-04-16T01:24:14.990Z,17.60
2023-04-16T01:26:43.362Z,18.40
2023-04-16T01:29:11.442Z,17.90
2023-04-16T01:31:39.556Z,19.60
2023-04-16T01:34:27.025Z,18.40
2023-04-16T01:36:55.143Z,19.00
2023-04-16T01:39:23.045Z,16.80
2023-04-16T01:41:51.059Z,17.20
2023-04-16T01:44:19.352Z,18.40
2023-04-16T01:46:47.717Z,17.80
2023-04-16T01:49:15.944Z,17.50
2023-04-16T01:51:44.861Z,17.90
2023-04-16T01:54:12.778Z,19.30
2023-04-16T01:56:42.004Z,19.10
2023-04-16T01:59:10.026Z,16.70
2023-04-16T02:01:40.493Z,18.20
2023-04-16T02:04:08.613Z,17.30
2023-04-16T02:06:36.494Z,17.40
2023-04-16T02:09:04.566Z,17.90
2023-04-16T02:11:34.299Z,17.80
2023-04-16T02:14:02.371Z,18.10
2023-04-16T02:16:31.302Z,15.60
2023-04-16T02:19:31.341Z,17.60
2023-04-16T02:22:01.449Z,17.50
2023-04-16T02:24:29.508Z,17.70
2023-04-16T02:26:58.293Z,14.90
2023-04-16T02:29:26.576Z,15.90
2023-04-16T02:32:00.427Z,15.20
2023-04-16T02:34:29.264Z,15.40
2023-04-16T02:36:58.414Z,16.90
2023-04-16T02:39:26.568Z,15.70
2023-04-16T02:41:54.735Z,15.10
2023-04-16T02:44:22.698Z,14.40
2023-04-16T02:46:50.781Z,14.20
2023-04-16T02:49:18.808Z,15.00
2023-04-16T02:51:46.808Z,13.00
2023-04-16T02:54:14.633Z,13.90
2023-04-16T02:56:42.698Z,14.30
2023-04-16T02:59:11.087Z,14.80
2023-04-16T03:01:39.579Z,14.60
2023-04-16T03:04:07.740Z,13.00
2023-04-16T03:06:36.096Z,14.90
2023-04-16T03:09:04.024Z,14.60
2023-04-16T03:11:32.024Z,13.30
2023-04-16T03:14:00.826Z,13.50
2023-04-16T03:16:28.858Z,13.80
2023-04-16T03:18:56.633Z,14.50
2023-04-16T03:21:24.565Z,14.20
2023-04-16T03:23:53.938Z,14.10
2023-04-16T03:26:23.131Z,12.90
2023-04-16T03:28:52.534Z,14.40
2023-04-16T03:31:20.731Z,14.20
2023-04-16T03:33:48.705Z,12.10
2023-04-16T03:36:16.642Z,12.40
2023-04-16T03:38:44.539Z,10.80
2023-04-16T03:41:13.771Z,13.50
2023-04-16T03:43:41.620Z,12.10
2023-04-16T03:46:11.311Z,11.70
2023-04-16T03:48:39.934Z,11.60
2023-04-16T03:51:08.190Z,12.50
2023-04-16T03:53:36.244Z,11.30
2023-04-16T03:56:04.481Z,11.30
2023-04-16T03:58:32.380Z,10.30
2023-04-16T04:01:00.574Z,11.00
2023-04-16T04:03:28.686Z,10.70
2023-04-16T04:05:57.057Z,11.10
2023-04-16T04:08:31.347Z,10.40
2023-04-16T04:10:59.467Z,10.30
2023-04-16T04:13:27.614Z,9.40
2023-04-16T04:16:00.579Z,10.20
2023-04-16T04:18:28.981Z,10.50
2023-04-16T04:20:57.266Z,10.00
2023-04-16T04:23:27.749Z,8.60
2023-04-16T04:25:55.655Z,9.10
2023-04-16T04:28:23.833Z,9.20
2023-04-16T04:30:52.006Z,9.30
2023-04-16T04:33:20.480Z,9.10
2023-04-16T04:35:48.400Z,8.80
2023-04-16T04:38:19.953Z,7.70
2023-04-16T04:40:48.866Z,8.20
2023-04-16T04:43:16.919Z,8.50
2023-04-16T04:45:46.362Z,8.70
2023-04-16T04:48:14.952Z,8.00
2023-04-16T04:50:45.040Z,7.30
2023-04-16T04:53:14.942Z,8.50
2023-04-16T04:55:43.033Z,7.70
2023-04-16T04:58:11.120Z,7.70
2023-04-16T05:00:39.122Z,7.70
2023-04-16T05:03:10.604Z,7.80
2023-04-16T05:05:41.668Z,7.70
2023-04-16T05:08:09.832Z,8.30
2023-04-16T05:10:38.099Z,7.90
2023-04-16T05:13:06.782Z,7.90
2023-04-16T05:15:34.861Z,8.10
2023-04-16T05:18:03.220Z,9.10
2023-04-16T05:20:31.442Z,8.00
2023-04-16T05:22:59.374Z,7.10
2023-04-16T05:25:27.520Z,8.00
2023-04-16T05:27:55.839Z,8.40
2023-04-16T05:30:23.762Z,7.90
2023-04-16T05:32:53.266Z,7.70
2023-04-16T05:35:22.190Z,8.50
2023-04-16T05:37:50.897Z,8.30
2023-04-16T05:40:19.046Z,8.10
2023-04-16T05:42:47.537Z,8.80
2023-04-16T05:45:15.794Z,7.50
2023-04-16T05:47:44.916Z,8.80
2023-04-16T05:50:12.974Z,9.60
2023-04-16T05:52:41.882Z,8.20
2023-04-16T05:55:10.165Z,7.80
2023-04-16T05:57:38.195Z,8.30
2023-04-16T06:00:08.841Z,9.30
2023-04-16T06:02:46.007Z,8.80
2023-04-16T06:05:14.262Z,8.20
2023-04-16T06:07:42.571Z,9.30
2023-04-16T06:10:10.980Z,10.00
2023-04-16T06:12:39.252Z,8.90
2023-04-16T06:15:08.753Z,8.80
2023-04-16T06:17:37.007Z,9.40
2023-04-16T06:20:05.587Z,8.60
2023-04-16T06:22:34.409Z,7.60
2023-04-16T06:25:02.517Z,9.20
2023-04-16T06:27:31.349Z,8.60
2023-04-16T06:29:59.344Z,9.10
2023-04-16T06:32:27.322Z,7.10
2023-04-16T06:34:56.436Z,8.80
2023-04-16T06:37:24.321Z,10.00
2023-04-16T06:39:52.210Z,8.30
2023-04-16T06:42:20.380Z,7.90
2023-04-16T06:44:48.284Z,8.00
2023-04-16T06:47:16.395Z,8.00
2023-04-16T06:49:44.419Z,9.30
2023-04-16T06:52:12.965Z,8.20
2023-04-16T06:54:41.001Z,7.60
2023-04-16T06:57:09.010Z,8.70
2023-04-16T06:59:39.657Z,8.30
2023-04-16T07:02:11.407Z,7.70
2023-04-16T07:04:40.025Z,7.80
2023-04-16T07:07:08.812Z,8.80
2023-04-16T07:09:37.758Z,9.00
2023-04-16T07:12:07.282Z,8.50
2023-04-16T07:14:35.468Z,8.60
2023-04-16T07:17:03.542Z,8.00
2023-04-16T07:19:32.864Z,8.70
2023-04-16T07:22:01.066Z,9.40
2023-04-16T07:24:29.522Z,7.90
2023-04-16T07:26:57.617Z,9.10
2023-04-16T07:29:25.743Z,9.20
2023-04-16T07:31:53.946Z,9.60
2023-04-16T07:34:21.934Z,9.40
2023-04-16T07:36:49.914Z,9.30
2023-04-16T07:39:18.156Z,8.90
2023-04-16T07:41:46.408Z,9.80
2023-04-16T07:44:14.232Z,10.70
2023-04-16T07:46:47.385Z,10.30
2023-04-16T07:49:15.760Z,9.60
2023-04-16T07:51:43.987Z,9.30
2023-04-16T07:54:11.964Z,10.50
2023-04-16T07:56:41.012Z,10.40
2023-04-16T08:01:42.822Z,10.50
2023-04-16T08:04:10.968Z,11.90
2023-04-16T08:06:39.989Z,10.30
2023-04-16T08:09:08.108Z,10.10
2023-04-16T08:11:36.427Z,10.30
2023-04-16T08:14:04.484Z,10.20
2023-04-16T08:16:32.391Z,10.90
2023-04-16T08:19:01.259Z,11.30
2023-04-16T08:21:30.782Z,10.70
2023-04-16T08:23:58.924Z,10.40
2023-04-16T08:26:27.230Z,9.40
2023-04-16T08:28:55.169Z,11.00
2023-04-16T08:31:23.195Z,11.00
2023-04-16T08:33:51.155Z,10.40
2023-04-16T08:36:19.136Z,10.20
2023-04-16T08:38:52.348Z,10.80
2023-04-16T08:41:20.556Z,10.60
2023-04-16T08:43:48.663Z,11.50
2023-04-16T08:46:17.457Z,11.50
2023-04-16T08:48:45.391Z,10.70
2023-04-16T08:51:13.463Z,10.40
2023-04-16T08:54:05.533Z,11.60
2023-04-16T08:59:05.337Z,10.10
2023-04-16T09:01:34.578Z,10.20
2023-04-16T09:04:03.152Z,12.30
2023-04-16T09:06:31.582Z,13.10
2023-04-16T09:08:59.785Z,11.80
2023-04-16T09:11:27.687Z,12.60
2023-04-16T09:13:55.559Z,12.20
2023-04-16T09:16:23.610Z,10.90
2023-04-16T09:18:52.116Z,13.20
2023-04-16T09:21:21.076Z,11.90
2023-04-16T09:23:53.416Z,15.80
2023-04-16T09:26:21.974Z,13.90
2023-04-16T09:28:51.555Z,15.10
2023-04-16T09:31:20.035Z,14.70
2023-04-16T09:34:04.575Z,13.50
2023-04-16T09:36:32.871Z,14.40
2023-04-16T09:39:01.223Z,16.30
2023-04-16T09:41:30.961Z,17.70
2023-04-16T09:44:04.169Z,20.20
2023-04-16T09:46:35.303Z,19.00
2023-04-16T09:49:16.769Z,15.90
2023-04-16T09:51:45.804Z,16.80
2023-04-16T09:54:13.900Z,17.00
2023-04-16T09:56:43.118Z,20.30
2023-04-16T09:59:21.002Z,21.40
2023-04-16T10:01:49.983Z,22.60
2023-04-16T10:04:18.259Z,22.30
2023-04-16T10:07:13.421Z,19.80
2023-04-16T10:09:42.458Z,17.20
2023-04-16T10:12:12.889Z,16.80
2023-04-16T10:14:41.361Z,18.70
2023-04-16T10:17:09.807Z,17.00
2023-04-16T10:19:37.946Z,17.70
2023-04-16T10:22:08.975Z,16.90
2023-04-16T10:24:37.192Z,18.00
2023-04-16T10:27:05.400Z,14.90
2023-04-16T10:29:34.161Z,15.80
2023-04-16T10:32:02.075Z,17.10
2023-04-16T10:34:31.353Z,17.80
2023-04-16T10:36:59.302Z,16.90
2023-04-16T10:39:28.507Z,17.60
2023-04-16T10:42:10.099Z,16.00
2023-04-16T10:44:38.145Z,15.60
2023-04-16T10:47:13.523Z,15.90
2023-04-16T10:49:42.505Z,15.00
2023-04-16T10:52:17.420Z,16.70
2023-04-16T10:54:46.822Z,16.90
2023-04-16T10:57:19.398Z,15.90
2023-04-16T10:59:48.775Z,17.90
2023-04-16T11:02:20.129Z,17.00
2023-04-16T11:04:48.976Z,17.00
2023-04-16T11:07:21.802Z,17.30
2023-04-16T11:09:56.361Z,16.60
2023-04-16T11:12:38.600Z,15.70
2023-04-16T11:15:12.965Z,16.60
2023-04-16T11:17:52.681Z,16.00
2023-04-16T11:20:21.891Z,16.80
2023-04-16T11:22:50.679Z,18.10
2023-04-16T11:25:26.953Z,16.60
2023-04-16T11:27:55.152Z,17.00
2023-04-16T11:30:31.620Z,16.80
2023-04-16T11:33:02.198Z,16.90
2023-04-16T11:35:30.296Z,17.60
2023-04-16T11:37:58.847Z,17.10
2023-04-16T11:40:30.040Z,17.00
2023-04-16T11:43:04.101Z,16.20
2023-04-16T11:45:32.393Z,15.60
2023-04-16T11:48:00.428Z,15.80
2023-04-16T11:50:28.563Z,17.20
2023-04-16T11:52:57.733Z,14.40
2023-04-16T11:55:25.779Z,15.90
2023-04-16T11:57:53.886Z,16.00
2023-04-16T12:00:23.101Z,23.50
2023-04-16T12:02:53.684Z,22.90
2023-04-16T12:05:32.045Z,23.00
2023-04-16T12:08:04.298Z,23.50
2023-04-16T12:10:36.768Z,21.90
2023-04-16T12:13:14.931Z,19.70
2023-04-16T12:15:49.415Z,20.20
2023-04-16T12:18:22.552Z,19.60
2023-04-16T12:20:53.197Z,20.80
2023-04-16T12:23:31.138Z,20.20
2023-04-16T12:26:03.145Z,20.00
2023-04-16T12:28:33.108Z,22.50
2023-04-16T12:31:02.464Z,21.80
2023-04-16T12:33:31.283Z,22.90
2023-04-16T12:35:59.330Z,23.20
2023-04-16T12:38:28.634Z,22.60
2023-04-16T12:40:57.805Z,21.10
2023-04-16T12:43:26.493Z,20.60
2023-04-16T12:45:55.337Z,20.30
2023-04-16T12:48:23.431Z,21.40
2023-04-16T12:50:53.905Z,19.50
2023-04-16T12:53:22.530Z,18.30
2023-04-16T12:55:50.958Z,22.10
2023-04-16T12:58:19.254Z,20.60
2023-04-16T13:00:47.373Z,18.60
2023-04-16T13:03:16.169Z,17.60
2023-04-16T13:05:44.606Z,17.90
2023-04-16T13:08:12.792Z,19.30
2023-04-16T13:10:41.030Z,17.20
2023-04-16T13:13:09.484Z,17.20
2023-04-16T13:15:37.966Z,17.20
2023-04-16T13:18:06.245Z,16.50
2023-04-16T13:20:34.267Z,17.10
2023-04-16T13:23:05.245Z,17.20
2023-04-16T13:25:34.050Z,17.40
2023-04-16T13:28:02.173Z,16.30
2023-04-16T13:30:31.703Z,17.00
2023-04-16T13:32:59.855Z,17.40
2023-04-16T13:35:27.881Z,17.00
2023-04-16T13:37:56.004Z,15.60
2023-04-16T13:40:24.004Z,18.70
2023-04-16T13:42:52.141Z,16.80
2023-04-16T13:45:22.866Z,19.50
2023-04-16T13:47:50.991Z,16.40
2023-04-16T13:50:19.570Z,17.10
2023-04-16T13:52:48.019Z,18.00
2023-04-16T13:55:19.125Z,15.50
2023-04-16T13:57:47.600Z,15.20
2023-04-16T14:00:16.141Z,16.50
2023-04-16T14:02:45.964Z,16.20
2023-04-16T14:05:14.259Z,15.70
2023-04-16T14:07:43.161Z,14.80
2023-04-16T14:10:11.710Z,14.40
2023-04-16T14:12:40.373Z,16.20
2023-04-16T14:15:09.815Z,14.90
2023-04-16T14:17:38.580Z,13.70
2023-04-16T14:20:07.412Z,13.60
2023-04-16T14:22:35.896Z,11.70
2023-04-16T14:25:04.394Z,14.30
2023-04-16T14:27:33.146Z,13.50
2023-04-16T14:30:01.070Z,14.90
2023-04-16T14:32:30.718Z,16.20
2023-04-16T14:34:59.142Z,14.30
2023-04-16T14:37:27.442Z,13.00
2023-04-16T14:39:55.607Z,14.70
2023-04-16T14:42:24.699Z,13.90
2023-04-16T14:44:53.196Z,12.40
2023-04-16T14:47:21.239Z,12.80
2023-04-16T14:49:49.267Z,14.80
2023-04-16T14:52:17.287Z,15.30
2023-04-16T14:54:45.619Z,14.60
2023-04-16T14:57:14.388Z,14.50
2023-04-16T14:59:42.498Z,13.70
2023-04-16T15:02:10.794Z,15.10
2023-04-16T15:04:38.947Z,14.70
2023-04-16T15:07:07.064Z,13.50
2023-04-16T15:09:35.069Z,13.40
2023-04-16T15:12:04.319Z,16.70
2023-04-16T15:14:32.442Z,14.80
2023-04-16T15:17:00.478Z,14.30
2023-04-16T15:19:29.050Z,16.60
2023-04-16T15:21:57.039Z,18.10
2023-04-16T15:24:25.065Z,16.80
2023-04-16T15:26:52.973Z,15.30
2023-04-16T15:29:21.199Z,17.00
2023-04-16T15:31:49.035Z,17.10
2023-04-16T15:34:16.929Z,16.40
2023-04-16T15:36:46.324Z,16.10
2023-04-16T15:39:14.475Z,18.10
2023-04-16T15:41:57.573Z,18.60
2023-04-16T15:44:30.249Z,17.10
2023-04-16T15:46:58.534Z,16.60
2023-04-16T15:49:26.598Z,17.30
2023-04-16T15:51:55.237Z,15.70
2023-04-16T15:54:23.629Z,17.70
2023-04-16T15:56:51.743Z,18.80
2023-04-16T15:59:19.729Z,18.40
2023-04-16T16:01:48.559Z,16.50
2023-04-16T16:04:18.860Z,18.30
2023-04-16T16:06:47.072Z,19.60
2023-04-16T16:09:15.137Z,18.20
2023-04-16T16:11:44.273Z,18.80
2023-04-16T16:14:15.354Z,16.90
2023-04-16T16:16:44.255Z,18.90
2023-04-16T16:19:12.616Z,18.90
2023-04-16T16:21:41.030Z,17.30
2023-04-16T16:24:09.461Z,17.70
2023-04-16T16:26:37.661Z,17.50
2023-04-16T16:29:05.937Z,17.00
2023-04-16T16:31:34.227Z,15.80
2023-04-16T16:34:02.560Z,16.30
2023-04-16T16:36:32.386Z,16.30
2023-04-16T16:39:00.603Z,15.80
2023-04-16T16:41:30.783Z,17.30
2023-04-16T16:43:59.132Z,18.60
2023-04-16T16:46:27.578Z,16.60
2023-04-16T16:48:55.543Z,16.40
2023-04-16T16:51:23.729Z,15.90
2023-04-16T16:53:52.198Z,17.60
2023-04-16T16:56:21.589Z,18.80
2023-04-16T16:58:49.468Z,16.40
2023-04-16T17:01:18.187Z,15.00
2023-04-16T17:03:46.446Z,17.20
2023-04-16T17:06:14.557Z,15.70
2023-04-16T17:08:43.114Z,15.00
2023-04-16T17:11:11.009Z,14.80
2023-04-16T17:13:39.698Z,15.60
2023-04-16T17:16:08.051Z,15.30
2023-04-16T17:18:36.208Z,15.00
2023-04-16T17:21:04.205Z,15.60
2023-04-16T17:23:32.174Z,16.20
2023-04-16T17:26:00.166Z,15.00
2023-04-16T17:28:28.156Z,15.20
2023-04-16T17:30:57.083Z,16.10
2023-04-16T17:33:25.175Z,16.20
2023-04-16T17:35:53.730Z,15.70
2023-04-16T17:38:24.290Z,15.60
2023-04-16T17:40:52.572Z,13.60
2023-04-16T17:43:21.589Z,14.90
2023-04-16T17:45:49.750Z,15.50
2023-04-16T17:48:18.413Z,14.30
2023-04-16T17:50:47.238Z,15.30
2023-04-16T17:53:17.395Z,16.00
2023-04-16T17:55:54.579Z,13.90
2023-04-16T17:58:26.303Z,14.80
2023-04-16T18:00:54.252Z,14.70
2023-04-16T18:03:23.069Z,16.60
2023-04-16T18:05:51.612Z,14.20
2023-04-16T18:08:23.558Z,14.60
2023-04-16T18:10:51.986Z,15.10
2023-04-16T18:13:25.935Z,16.30
2023-04-16T18:15:54.158Z,14.80
2023-04-16T18:18:22.316Z,14.10
2023-04-16T18:20:50.842Z,13.50
2023-04-16T18:23:19.780Z,13.80
2023-04-16T18:25:48.873Z,13.60
2023-04-16T18:28:17.894Z,15.30
2023-04-16T18:30:46.166Z,15.30
2023-04-16T18:35:45.263Z,16.20
2023-04-16T18:38:16.195Z,16.40
2023-04-16T18:40:44.066Z,14.40
2023-04-16T18:43:13.365Z,14.20
2023-04-16T18:45:41.739Z,13.70
2023-04-16T18:48:09.581Z,13.90
2023-04-16T18:50:37.800Z,14.90
2023-04-16T18:53:06.094Z,14.30
2023-04-16T18:55:34.564Z,13.10
2023-04-16T18:58:02.535Z,13.10
2023-04-16T19:00:30.693Z,13.30
2023-04-16T19:02:58.735Z,13.80
2023-04-16T19:05:26.783Z,12.20
2023-04-16T19:07:55.073Z,12.10
2023-04-16T19:10:23.434Z,12.40
2023-04-16T19:12:51.418Z,12.50
2023-04-16T19:15:19.816Z,11.20
2023-04-16T19:17:47.823Z,11.30
2023-04-16T19:20:15.901Z,11.30
2023-04-16T19:22:44.497Z,12.40
2023-04-16T19:25:12.474Z,10.60
2023-04-16T19:27:41.546Z,10.80
2023-04-16T19:30:09.891Z,11.40
2023-04-16T19:32:40.675Z,11.40
2023-04-16T19:35:09.248Z,11.00
2023-04-16T19:37:37.147Z,11.00
2023-04-16T19:40:06.443Z,10.40
2023-04-16T19:42:34.594Z,11.60
2023-04-16T19:45:03.369Z,11.50
2023-04-16T19:47:31.528Z,9.60
2023-04-16T19:49:59.671Z,10.10
2023-04-16T19:52:27.809Z,12.00
2023-04-16T19:54:55.896Z,11.50
2023-04-16T19:57:23.960Z,11.80
2023-04-16T19:59:53.539Z,11.00
2023-04-16T20:02:23.241Z,10.70
2023-04-16T20:04:53.017Z,10.80
2023-04-16T20:07:21.127Z,11.10
2023-04-16T20:09:49.073Z,10.40
2023-04-16T20:12:17.021Z,10.30
2023-04-16T20:14:44.959Z,10.50
2023-04-16T20:17:17.873Z,10.80
2023-04-16T20:19:49.653Z,9.10
2023-04-16T20:24:47.874Z,9.90
2023-04-16T20:27:19.576Z,10.10
2023-04-16T20:29:47.874Z,10.80
2023-04-16T20:32:15.896Z,9.90
2023-04-16T20:34:43.772Z,9.50
2023-04-16T20:37:11.902Z,10.30
2023-04-16T20:39:40.197Z,9.90
2023-04-16T20:42:12.000Z,9.80
2023-04-16T20:44:41.346Z,11.00
2023-04-16T20:47:11.772Z,9.50
2023-04-16T20:49:40.340Z,9.30
2023-04-16T20:52:08.366Z,9.80
2023-04-16T20:54:36.321Z,10.10
2023-04-16T20:57:05.073Z,10.10
2023-04-16T20:59:33.271Z,10.50
2023-04-16T21:02:01.617Z,10.50
2023-04-16T21:04:30.025Z,9.40
2023-04-16T21:06:59.364Z,9.30
2023-04-16T21:09:27.326Z,9.10
2023-04-16T21:11:55.484Z,9.50
2023-04-16T21:14:23.458Z,9.90
2023-04-16T21:16:51.428Z,10.00
2023-04-16T21:19:19.408Z,9.30
2023-04-16T21:21:47.343Z,8.50
2023-04-16T21:24:15.574Z,10.60
2023-04-16T21:26:43.507Z,11.10
2023-04-16T21:29:11.880Z,10.60
2023-04-16T21:31:39.961Z,10.40
2023-04-16T21:34:08.332Z,10.80
2023-04-16T21:36:36.356Z,9.90
2023-04-16T21:39:04.206Z,11.60
2023-04-16T21:41:32.254Z,11.40
2023-04-16T21:44:00.318Z,11.40
2023-04-16T21:46:28.949Z,10.50
2023-04-16T21:48:56.967Z,11.00
2023-04-16T21:51:29.804Z,11.90
2023-04-16T21:53:57.726Z,10.10
2023-04-16T21:56:26.057Z,9.90
2023-04-16T21:58:53.998Z,9.60
2023-04-16T22:01:22.047Z,10.50
2023-04-16T22:03:52.335Z,10.70
2023-04-16T22:06:20.797Z,10.10
2023-04-16T22:08:50.020Z,9.90
2023-04-16T22:11:18.331Z,10.10
2023-04-16T22:13:47.860Z,9.90
2023-04-16T22:16:15.886Z,9.50
2023-04-16T22:18:45.187Z,10.70
2023-04-16T22:21:13.122Z,9.20
2023-04-16T22:23:41.070Z,8.70
2023-04-16T22:26:09.202Z,9.90
2023-04-16T22:28:37.265Z,9.80
2023-04-16T22:31:05.160Z,10.40
2023-04-16T22:33:33.248Z,9.30
2023-04-16T22:36:03.584Z,9.10
2023-04-16T22:38:31.608Z,8.90
2023-04-16T22:40:59.771Z,10.60
2023-04-16T22:43:27.850Z,9.80
2023-04-16T22:46:06.791Z,10.00
2023-04-16T22:48:36.514Z,8.40
2023-04-16T22:51:05.501Z,9.50
2023-04-16T22:53:33.697Z,10.20
2023-04-16T22:56:01.872Z,10.60
2023-04-16T22:58:30.048Z,9.80
2023-04-16T23:00:59.613Z,9.70
2023-04-16T23:03:28.776Z,10.00
2023-04-16T23:05:56.956Z,10.10
2023-04-16T23:08:24.874Z,10.10
2023-04-16T23:10:53.441Z,9.40
2023-04-16T23:13:21.784Z,8.80
2023-04-16T23:15:49.650Z,9.60
2023-04-16T23:18:17.592Z,9.60
2023-04-16T23:20:45.550Z,8.50
2023-04-16T23:23:13.614Z,9.00
2023-04-16T23:25:41.626Z,8.50
2023-04-16T23:28:09.560Z,8.60
2023-04-16T23:30:37.528Z,8.50
2023-04-16T23:33:05.626Z,10.00
2023-04-16T23:35:33.535Z,7.90
2023-04-16T23:38:01.553Z,9.30
2023-04-16T23:40:29.774Z,9.40
2023-04-16T23:42:57.754Z,9.60
2023-04-16T23:45:25.907Z,9.70
2023-04-16T23:47:54.078Z,8.80
2023-04-16T23:50:22.007Z,8.90
2023-04-16T23:52:50.364Z,8.90
2023-04-16T23:55:18.211Z,9.50
2023-04-16T23:57:46.373Z,8.50
